Time;durP1;ratioP1;P1;durP2;ratioP2;P2;SDS_P1;SDS_P2;PMS_P1;PMS_P2;Temp;Humidity;BMP_temperature;BMP_pressure;BME280_temperature;BME280_humidity;BME280_pressure;Samples;Min_cycle;Max_cycle;Signal;HPM_P1;HPM_P2
2022/09/16 00:00:16;;;;;;;5.50;1.10;;;12.40;99.90;;;;;;7399191;19;20021;-83
2022/09/16 00:02:42;;;;;;;6.63;1.45;;;12.30;99.90;;;;;;7402169;19;20018;-83
2022/09/16 00:05:08;;;;;;;5.40;0.80;;;12.30;99.90;;;;;;7400035;19;20018;-83
2022/09/16 00:07:34;;;;;;;4.45;0.90;;;12.30;99.90;;;;;;7400639;19;20031;-83
2022/09/16 00:10:00;;;;;;;4.32;0.80;;;12.30;99.90;;;;;;7401579;19;20491;-83
2022/09/16 00:12:27;;;;;;;4.88;1.00;;;12.40;99.90;;;;;;7401686;19;20537;-84
2022/09/16 00:14:54;;;;;;;6.68;1.08;;;12.40;99.90;;;;;;7401088;19;20470;-83
2022/09/16 00:17:20;;;;;;;6.43;0.95;;;12.30;99.90;;;;;;7399734;19;20014;-83
2022/09/16 00:19:47;;;;;;;4.85;1.02;;;12.20;99.90;;;;;;7398253;19;20045;-83
2022/09/16 00:22:13;;;;;;;4.75;0.90;;;12.20;99.90;;;;;;7399247;19;20041;-84
2022/09/16 00:24:39;;;;;;;7.70;1.20;;;12.20;99.90;;;;;;7400111;19;20019;-84
2022/09/16 00:27:05;;;;;;;4.95;0.90;;;12.10;99.90;;;;;;7399499;19;20387;-84
2022/09/16 00:29:30;;;;;;;5.28;0.90;;;12.10;99.90;;;;;;7396675;19;20015;-84
2022/09/16 00:31:56;;;;;;;6.00;1.00;;;12.10;99.90;;;;;;7398434;19;20011;-83
2022/09/16 00:34:22;;;;;;;7.00;1.00;;;12.10;99.90;;;;;;7401256;19;20421;-84
2022/09/16 00:36:48;;;;;;;7.30;1.17;;;12.10;99.90;;;;;;7399043;19;20018;-84
2022/09/16 00:39:14;;;;;;;3.47;0.65;;;12.10;99.90;;;;;;7398605;19;20491;-83
2022/09/16 00:41:40;;;;;;;7.70;0.90;;;12.00;99.90;;;;;;7398693;19;20018;-83
2022/09/16 00:44:44;;;;;;;5.28;1.13;;;12.00;99.90;;;;;;7402501;19;20014;-83
2022/09/16 00:47:11;;;;;;;6.13;1.00;;;11.90;99.90;;;;;;7397729;19;20042;-83
2022/09/16 00:49:37;;;;;;;5.20;0.77;;;12.00;99.90;;;;;;7399687;19;20019;-84
2022/09/16 00:52:05;;;;;;;5.65;0.95;;;12.10;99.90;;;;;;7397280;19;20362;-83
2022/09/16 00:54:34;;;;;;;5.68;1.10;;;12.30;99.90;;;;;;7400504;19;20028;-83
2022/09/16 00:57:02;;;;;;;4.22;0.80;;;12.50;99.90;;;;;;7396811;19;20030;-82
2022/09/16 00:59:30;;;;;;;5.15;0.93;;;12.50;99.90;;;;;;7394224;19;20015;-84
2022/09/16 01:02:01;;;;;;;6.50;1.10;;;12.60;99.90;;;;;;7399253;19;20018;-83
2022/09/16 01:04:34;;;;;;;4.95;1.00;;;12.50;99.90;;;;;;7401960;19;20014;-83
2022/09/16 01:07:00;;;;;;;4.45;0.82;;;12.50;99.90;;;;;;7397799;19;20341;-83
2022/09/16 01:09:28;;;;;;;5.68;0.80;;;12.60;99.90;;;;;;7397661;19;20030;-83
2022/09/16 01:11:54;;;;;;;3.70;0.80;;;12.60;99.90;;;;;;7398927;19;20015;-84
2022/09/16 01:17:20;;;;;;;5.47;1.08;;;12.50;99.90;;;;;;7397155;19;20042;-83
2022/09/16 01:20:00;;;;;;;6.63;1.00;;;12.30;99.90;;;;;;7397264;19;20077;-83
2022/09/16 01:22:44;;;;;;;6.35;0.90;;;12.20;99.90;;;;;;7400499;19;20042;-83
2022/09/16 01:25:48;;;;;;;6.80;1.27;;;12.20;99.90;;;;;;7397832;19;20025;-83
2022/09/16 01:28:35;;;;;;;5.93;0.80;;;12.10;99.90;;;;;;7398130;19;20468;-83
2022/09/16 01:31:14;;;;;;;6.30;1.13;;;11.90;99.90;;;;;;7398179;19;20018;-83
2022/09/16 01:34:01;;;;;;;6.55;1.20;;;11.90;99.90;;;;;;7395850;19;20035;-84
2022/09/16 01:36:37;;;;;;;6.68;1.08;;;11.80;99.90;;;;;;7398420;19;20019;-82
2022/09/16 01:39:21;;;;;;;5.82;1.02;;;11.80;99.90;;;;;;7396534;19;20015;-82
2022/09/16 01:42:14;;;;;;;3.75;0.82;;;11.80;99.90;;;;;;7399375;19;20025;-82
2022/09/16 01:44:58;;;;;;;3.60;0.88;;;12.10;99.90;;;;;;7398840;19;20021;-83
2022/09/16 01:47:40;;;;;;;4.95;0.85;;;12.30;99.90;;;;;;7396852;19;20519;-83
2022/09/16 01:50:06;;;;;;;11.65;1.40;;;12.30;99.90;;;;;;7392171;19;20031;-83
2022/09/16 01:52:45;;;;;;;5.78;0.80;;;12.40;99.90;;;;;;7390196;19;20014;-82
2022/09/16 01:55:24;;;;;;;6.28;1.35;;;12.30;99.90;;;;;;7394398;19;20011;-83
2022/09/16 01:57:55;;;;;;;6.40;0.70;;;12.30;99.90;;;;;;7397734;19;20043;-83
2022/09/16 02:00:21;;;;;;;5.28;0.80;;;12.30;99.90;;;;;;7391014;19;20035;-82
2022/09/16 02:03:09;;;;;;;2.58;0.60;;;12.20;99.90;;;;;;7389383;19;20019;-82
2022/09/16 02:05:58;;;;;;;4.40;0.70;;;12.20;99.90;;;;;;7397776;19;20400;-83
2022/09/16 02:08:44;;;;;;;5.60;0.73;;;12.20;99.90;;;;;;7395010;19;20017;-83
2022/09/16 02:11:13;;;;;;;3.90;0.85;;;12.10;99.90;;;;;;7397861;19;20014;-83
2022/09/16 02:13:45;;;;;;;5.82;0.80;;;12.10;99.90;;;;;;7398074;19;20501;-83
2022/09/16 02:16:14;;;;;;;3.83;0.80;;;12.20;99.90;;;;;;7397045;19;20042;-83
2022/09/16 02:18:43;;;;;;;7.72;1.15;;;12.20;99.90;;;;;;7394400;19;20014;-83
2022/09/16 02:21:14;;;;;;;5.45;0.85;;;12.20;99.90;;;;;;7394376;19;20019;-83
2022/09/16 02:23:45;;;;;;;6.13;0.93;;;12.10;99.90;;;;;;7395757;19;20099;-83
2022/09/16 02:26:14;;;;;;;3.88;0.50;;;12.10;99.90;;;;;;7397104;19;20022;-83
2022/09/16 02:28:46;;;;;;;3.85;0.63;;;12.10;99.90;;;;;;7393334;19;20029;-83
2022/09/16 02:31:13;;;;;;;3.85;0.90;;;12.10;99.90;;;;;;7395974;19;20018;-84
2022/09/16 02:33:46;;;;;;;6.57;0.95;;;12.10;99.90;;;;;;7394037;19;20021;-83
2022/09/16 02:36:15;;;;;;;;;;;12.10;99.90;;;;;;7395948;19;20028;-83
2022/09/16 02:38:46;;;;;;;6.97;0.90;;;12.00;99.90;;;;;;7397877;19;19970;-84
2022/09/16 02:41:13;;;;;;;6.88;0.90;;;11.90;99.90;;;;;;7394155;19;20023;-83
2022/09/16 02:43:44;;;;;;;4.65;0.68;;;11.90;99.90;;;;;;7397452;19;20011;-83
2022/09/16 02:46:45;;;;;;;6.53;0.88;;;11.90;99.90;;;;;;7394290;19;20019;-83
2022/09/16 02:49:31;;;;;;;5.88;1.13;;;11.80;99.90;;;;;;7393842;19;20011;-83
2022/09/16 02:52:15;;;;;;;7.15;1.52;;;11.70;99.90;;;;;;7396123;19;20049;-83
2022/09/16 02:54:51;;;;;;;10.13;1.27;;;11.70;99.90;;;;;;7394941;19;20437;-83
2022/09/16 02:57:17;;;;;;;3.45;0.80;;;11.70;99.90;;;;;;7395090;19;20472;-83
2022/09/16 02:59:43;;;;;;;4.40;1.10;;;11.70;99.90;;;;;;7395411;19;20048;-83
2022/09/16 03:02:10;;;;;;;6.45;0.82;;;11.70;99.90;;;;;;7395447;19;20438;-83
2022/09/16 03:04:35;;;;;;;5.80;0.93;;;11.60;99.90;;;;;;7395294;19;20470;-83
2022/09/16 03:07:07;;;;;;;6.43;0.70;;;11.60;99.90;;;;;;7395491;19;20014;-83
2022/09/16 03:09:36;;;;;;;7.18;1.30;;;11.40;99.90;;;;;;7395598;19;20011;-82
2022/09/16 03:12:08;;;;;;;5.38;1.13;;;11.40;99.90;;;;;;7395000;19;20028;-83
2022/09/16 03:14:57;;;;;;;4.72;0.80;;;11.40;99.90;;;;;;7395257;19;20038;-82
2022/09/16 03:17:23;;;;;;;4.45;0.90;;;11.40;99.90;;;;;;7395144;19;20011;-83
2022/09/16 03:19:58;;;;;;;5.93;0.98;;;11.40;99.90;;;;;;7391992;19;20476;-83
2022/09/16 03:22:30;;;;;;;9.77;1.02;;;11.50;99.90;;;;;;7392251;19;20107;-82
2022/09/16 03:25:22;;;;;;;8.10;0.85;;;11.70;99.90;;;;;;7396526;19;20035;-83
2022/09/16 03:27:59;;;;;;;6.28;0.77;;;11.80;99.90;;;;;;7395490;19;20010;-83
2022/09/16 03:30:26;;;;;;;7.90;1.23;;;12.00;99.90;;;;;;7382744;19;20027;-83
2022/09/16 03:33:11;;;;;;;9.27;1.20;;;12.20;99.90;;;;;;7392035;19;20035;-84
2022/09/16 03:35:45;;;;;;;5.72;1.02;;;12.20;99.90;;;;;;7392106;19;20022;-83
2022/09/16 03:38:12;;;;;;;8.57;0.93;;;12.20;99.90;;;;;;7393121;19;20018;-83
2022/09/16 03:40:40;;;;;;;7.03;1.42;;;12.10;99.90;;;;;;7393822;19;20487;-83
2022/09/16 03:43:15;;;;;;;6.85;0.80;;;12.00;99.90;;;;;;7389912;19;20082;-83
2022/09/16 03:45:42;;;;;;;7.45;0.85;;;12.00;99.90;;;;;;7390943;19;20018;-83
2022/09/16 03:48:10;;;;;;;5.05;1.20;;;11.90;99.90;;;;;;7392319;19;20018;-82
2022/09/16 03:50:37;;;;;;;8.50;1.00;;;11.80;99.90;;;;;;7393838;19;20046;-83
2022/09/16 03:53:03;;;;;;;4.13;0.90;;;11.70;99.90;;;;;;7392305;19;20018;-83
2022/09/16 03:55:30;;;;;;;10.50;1.63;;;11.60;99.90;;;;;;7393232;19;20014;-83
2022/09/16 03:57:56;;;;;;;6.30;1.00;;;11.50;99.90;;;;;;7394648;19;20054;-83
2022/09/16 04:00:22;;;;;;;6.53;1.10;;;11.40;99.90;;;;;;7389136;19;20506;-83
2022/09/16 04:02:50;;;;;;;8.32;1.20;;;11.30;99.90;;;;;;7392276;19;20337;-83
2022/09/16 04:05:16;;;;;;;10.65;1.20;;;11.10;99.90;;;;;;7392488;19;20025;-83
2022/09/16 04:07:41;;;;;;;6.45;1.02;;;11.10;99.90;;;;;;7390795;19;20018;-82
2022/09/16 04:10:10;;;;;;;7.50;1.13;;;11.00;99.90;;;;;;7389691;19;20024;-83
2022/09/16 04:12:36;;;;;;;6.22;1.00;;;10.90;99.90;;;;;;7392080;19;20392;-83
2022/09/16 04:15:02;;;;;;;6.13;1.05;;;10.90;99.90;;;;;;7392690;19;20034;-83
2022/09/16 04:17:31;;;;;;;7.03;0.90;;;10.90;99.90;;;;;;7390032;19;20042;-83
2022/09/16 04:19:57;;;;;;;11.50;1.65;;;10.90;99.90;;;;;;7390446;19;20007;-83
2022/09/16 04:22:23;;;;;;;7.85;1.30;;;10.90;99.90;;;;;;7389422;19;20042;-83
2022/09/16 04:24:49;;;;;;;6.80;1.08;;;10.90;99.90;;;;;;7392157;19;20109;-83
2022/09/16 04:27:15;;;;;;;8.18;1.30;;;11.00;99.90;;;;;;7390799;19;20014;-83
2022/09/16 04:29:41;;;;;;;6.20;1.00;;;11.00;99.90;;;;;;7390906;19;20026;-83
2022/09/16 04:32:07;;;;;;;8.55;1.55;;;11.10;99.90;;;;;;7390782;19;20014;-83
2022/09/16 04:34:33;;;;;;;7.47;1.10;;;11.10;99.90;;;;;;7400729;19;20038;-83
2022/09/16 04:36:58;;;;;;;5.93;1.08;;;11.20;99.90;;;;;;7399913;19;20018;-83
2022/09/16 04:39:24;;;;;;;6.10;1.10;;;11.20;99.90;;;;;;7398683;19;20372;-82
2022/09/16 04:41:50;;;;;;;5.05;1.13;;;11.30;99.90;;;;;;7399561;19;20015;-83
2022/09/16 04:44:16;;;;;;;10.82;1.67;;;11.40;99.90;;;;;;7400310;19;20024;-83
2022/09/16 04:46:43;;;;;;;7.60;1.10;;;11.40;99.90;;;;;;7399836;19;20475;-82
2022/09/16 04:49:11;;;;;;;6.90;1.02;;;11.40;99.90;;;;;;7399448;19;20028;-83
2022/09/16 04:51:37;;;;;;;6.30;0.98;;;11.40;99.90;;;;;;7399513;19;20019;-83
2022/09/16 04:54:03;;;;;;;9.63;1.58;;;11.40;99.90;;;;;;7399641;19;20091;-83
2022/09/16 04:56:31;;;;;;;6.10;0.73;;;11.30;99.90;;;;;;7397068;19;20014;-83
2022/09/16 04:59:02;;;;;;;6.68;1.00;;;11.20;99.90;;;;;;7401177;19;20019;-83
2022/09/16 05:01:31;;;;;;;7.97;1.10;;;11.20;99.90;;;;;;7396863;19;20018;-83
2022/09/16 05:03:59;;;;;;;7.20;1.30;;;11.20;99.90;;;;;;7398287;19;21911;-83
2022/09/16 05:06:33;;;;;;;7.72;1.40;;;11.20;99.90;;;;;;7399732;19;20341;-83
2022/09/16 05:09:00;;;;;;;9.18;1.27;;;11.10;99.90;;;;;;7400035;19;20011;-83
2022/09/16 05:11:32;;;;;;;12.18;1.42;;;11.10;99.90;;;;;;7398212;19;20538;-83
2022/09/16 05:14:00;;;;;;;6.68;1.23;;;11.00;99.90;;;;;;7395597;19;20368;-83
2022/09/16 05:16:27;;;;;;;8.38;1.30;;;10.90;99.90;;;;;;7397036;19;20538;-83
2022/09/16 05:18:55;;;;;;;7.90;1.20;;;10.90;99.90;;;;;;7398244;19;20015;-83
2022/09/16 05:21:23;;;;;;;8.15;1.20;;;10.90;99.90;;;;;;7397889;19;20022;-82
2022/09/16 05:23:49;;;;;;;6.88;1.30;;;10.90;99.90;;;;;;7395618;19;20025;-82
2022/09/16 05:26:20;;;;;;;7.13;1.08;;;10.90;99.90;;;;;;7402141;19;20015;-82
2022/09/16 05:28:46;;;;;;;12.23;1.40;;;11.00;99.90;;;;;;7400680;19;20100;-82
2022/09/16 05:31:21;;;;;;;9.32;1.33;;;11.00;99.90;;;;;;7399855;19;20025;-81
2022/09/16 05:34:12;;;;;;;5.97;1.15;;;11.10;99.90;;;;;;7398980;19;20088;-82
2022/09/16 05:36:38;;;;;;;9.43;1.25;;;11.10;99.90;;;;;;7397919;19;20010;-83
2022/09/16 05:39:05;;;;;;;8.90;1.20;;;11.00;99.90;;;;;;7398420;19;20041;-83
2022/09/16 05:41:31;;;;;;;8.05;1.17;;;11.10;99.90;;;;;;7397742;19;20018;-82
2022/09/16 05:43:59;;;;;;;8.70;1.30;;;11.00;99.90;;;;;;7399412;19;20098;-83
2022/09/16 05:46:26;;;;;;;6.35;1.17;;;11.00;99.90;;;;;;7395958;19;20018;-82
2022/09/16 05:48:53;;;;;;;7.03;1.20;;;11.00;99.90;;;;;;7400875;19;20023;-82
2022/09/16 05:51:21;;;;;;;9.20;1.40;;;11.00;99.90;;;;;;7399791;19;20014;-82
2022/09/16 05:53:49;;;;;;;11.75;1.58;;;11.00;99.90;;;;;;7399714;19;20014;-82
2022/09/16 05:56:17;;;;;;;8.88;1.20;;;11.10;99.90;;;;;;7399351;19;20007;-82
2022/09/16 05:58:44;;;;;;;8.15;1.50;;;11.10;99.90;;;;;;7399846;19;20015;-83
2022/09/16 06:01:16;;;;;;;12.85;1.95;;;11.20;99.90;;;;;;7395547;19;20022;-91
2022/09/16 06:03:44;;;;;;;5.13;1.10;;;11.00;99.90;;;;;;7397782;19;20524;-88
2022/09/16 06:06:29;;;;;;;497.60;42.42;;;11.00;99.90;;;;;;7394896;19;20019;-81
2022/09/16 06:08:57;;;;;;;8.40;1.20;;;11.10;99.90;;;;;;7397833;19;20036;-93
2022/09/16 06:11:25;;;;;;;9.50;1.40;;;11.30;99.90;;;;;;7396820;19;20021;-82
2022/09/16 06:13:56;;;;;;;7.97;1.30;;;11.20;99.90;;;;;;7393477;19;20507;-83
2022/09/16 06:16:26;;;;;;;12.65;1.70;;;11.50;99.90;;;;;;7390632;19;20010;-84
2022/09/16 06:18:53;;;;;;;9.75;1.70;;;11.80;99.90;;;;;;7396093;19;20018;-84
2022/09/16 06:21:19;;;;;;;10.20;1.55;;;12.20;99.90;;;;;;7395369;19;20014;-85
2022/09/16 06:23:45;;;;;;;8.75;1.10;;;12.20;99.90;;;;;;7394092;19;20025;-82
2022/09/16 06:26:15;;;;;;;9.10;1.27;;;12.00;99.90;;;;;;7394511;19;20018;-82
2022/09/16 06:28:41;;;;;;;8.85;1.75;;;11.90;99.90;;;;;;7397104;19;20014;-82
2022/09/16 06:31:09;;;;;;;8.65;1.40;;;12.20;99.90;;;;;;7395657;19;20022;-82
2022/09/16 06:33:35;;;;;;;10.25;1.67;;;12.40;99.90;;;;;;7397859;19;20034;-82
2022/09/16 06:36:06;;;;;;;11.38;1.48;;;12.40;99.90;;;;;;7392112;19;20024;-83
2022/09/16 06:38:33;;;;;;;9.30;1.73;;;12.50;99.90;;;;;;7395609;19;20022;-83
2022/09/16 06:41:00;;;;;;;9.38;1.45;;;12.40;99.90;;;;;;7393161;19;20024;-83
2022/09/16 06:43:27;;;;;;;11.32;1.52;;;12.50;99.90;;;;;;7393470;19;20377;-83
2022/09/16 06:46:01;;;;;;;8.77;1.45;;;12.50;99.90;;;;;;7395213;19;20033;-83
2022/09/16 06:48:27;;;;;;;15.05;1.70;;;12.60;99.90;;;;;;7391942;19;20055;-83
2022/09/16 06:51:02;;;;;;;6.75;1.23;;;12.70;99.90;;;;;;7390250;19;20017;-83
2022/09/16 06:53:28;;;;;;;11.25;1.65;;;12.90;99.90;;;;;;7393249;19;20041;-83
2022/09/16 06:55:54;;;;;;;8.20;1.52;;;13.10;99.90;;;;;;7389507;19;20042;-83
2022/09/16 06:58:20;;;;;;;7.10;1.38;;;13.00;99.90;;;;;;7391944;19;20011;-83
2022/09/16 07:00:46;;;;;;;12.27;1.55;;;13.20;99.90;;;;;;7391682;19;20490;-83
2022/09/16 07:03:12;;;;;;;5.97;0.98;;;13.50;99.90;;;;;;7391380;19;20562;-83
2022/09/16 07:05:37;;;;;;;6.93;1.30;;;13.90;99.90;;;;;;7387674;19;20548;-83
2022/09/16 07:08:03;;;;;;;6.85;1.58;;;14.50;99.90;;;;;;7394832;19;20025;-83
2022/09/16 07:10:29;;;;;;;9.48;1.50;;;15.20;99.90;;;;;;7393827;19;20078;-83
2022/09/16 07:12:55;;;;;;;6.93;1.23;;;16.10;99.90;;;;;;7391091;19;20018;-83
2022/09/16 07:15:21;;;;;;;6.78;1.33;;;17.30;99.90;;;;;;7392707;19;20015;-81
2022/09/16 07:17:51;;;;;;;7.25;1.35;;;18.20;99.90;;;;;;7388956;19;20015;-84
2022/09/16 07:20:17;;;;;;;9.45;1.70;;;18.70;99.90;;;;;;7391687;19;20090;-83
2022/09/16 07:22:43;;;;;;;6.68;1.10;;;19.30;99.90;;;;;;7389508;19;20509;-83
2022/09/16 07:25:09;;;;;;;7.07;0.88;;;19.90;99.90;;;;;;7392129;19;20011;-83
2022/09/16 07:27:35;;;;;;;5.70;1.20;;;20.50;99.90;;;;;;7391945;19;20022;-83
2022/09/16 07:30:01;;;;;;;7.05;1.13;;;20.80;99.90;;;;;;7388649;19;20349;-83
2022/09/16 07:32:26;;;;;;;12.23;1.65;;;20.70;99.90;;;;;;7391168;19;20037;-83
2022/09/16 07:34:52;;;;;;;8.70;1.35;;;20.70;99.90;;;;;;7392091;19;20568;-82
2022/09/16 07:37:18;;;;;;;6.82;1.15;;;21.00;99.90;;;;;;7388892;19;20019;-82
2022/09/16 07:39:44;;;;;;;4.25;1.10;;;21.40;99.90;;;;;;7391725;19;20026;-83
2022/09/16 07:42:10;;;;;;;8.07;1.10;;;21.50;99.90;;;;;;7391173;19;20381;-83
2022/09/16 07:44:36;;;;;;;9.55;1.60;;;20.90;99.90;;;;;;7392108;19;20015;-83
2022/09/16 07:47:02;;;;;;;7.90;1.67;;;20.20;99.90;;;;;;7392247;19;20031;-82
2022/09/16 07:49:27;;;;;;;9.40;1.48;;;19.90;99.90;;;;;;7391554;19;20031;-82
2022/09/16 07:51:54;;;;;;;9.10;1.27;;;19.40;99.90;;;;;;7394403;19;20017;-82
2022/09/16 07:54:20;;;;;;;8.93;1.10;;;19.20;99.90;;;;;;7394797;19;20412;-83
2022/09/16 07:56:46;;;;;;;5.60;1.20;;;19.70;99.90;;;;;;7392251;19;20018;-82
2022/09/16 07:59:17;;;;;;;7.85;1.65;;;20.00;99.90;;;;;;7386446;19;20121;-83
2022/09/16 08:01:43;;;;;;;9.25;1.55;;;20.50;99.90;;;;;;7393091;19;20505;-82
2022/09/16 08:04:09;;;;;;;9.02;1.42;;;20.60;99.90;;;;;;7392159;19;20045;-83
2022/09/16 08:06:38;;;;;;;10.50;1.73;;;20.70;99.90;;;;;;7390475;19;20082;-82
2022/09/16 08:09:04;;;;;;;5.88;1.27;;;19.80;99.90;;;;;;7398494;19;20022;-82
2022/09/16 08:11:30;;;;;;;7.57;1.35;;;19.10;99.90;;;;;;7400525;19;20487;-82
2022/09/16 08:13:58;;;;;;;5.22;1.40;;;18.90;99.90;;;;;;7394926;19;20413;-82
2022/09/16 08:16:25;;;;;;;7.72;1.55;;;18.80;99.90;;;;;;7399668;19;20018;-83
2022/09/16 08:18:54;;;;;;;5.97;1.52;;;18.50;99.90;;;;;;7399682;19;20326;-83
2022/09/16 08:21:22;;;;;;;7.05;1.38;;;18.00;99.90;;;;;;7397447;19;20530;-82
2022/09/16 08:23:49;;;;;;;9.90;1.70;;;18.00;99.90;;;;;;7398693;19;20035;-82
2022/09/16 08:26:16;;;;;;;7.45;1.33;;;17.80;99.90;;;;;;7397597;19;20019;-82
2022/09/16 08:28:43;;;;;;;10.60;1.73;;;17.40;99.90;;;;;;7398525;19;20022;-82
2022/09/16 08:31:09;;;;;;;8.07;1.83;;;17.50;99.90;;;;;;7376204;19;20013;-83
2022/09/16 08:33:38;;;;;;;7.25;1.63;;;17.70;99.90;;;;;;7374063;19;20015;-83
2022/09/16 08:36:21;;;;;;;8.65;1.70;;;17.70;99.90;;;;;;7387589;19;20019;-83
2022/09/16 08:38:50;;;;;;;4.13;1.13;;;17.70;99.90;;;;;;7379569;19;20014;-82
2022/09/16 08:41:51;;;;;;;7.30;1.40;;;17.80;99.90;;;;;;7369671;19;20471;-82
2022/09/16 08:44:23;;;;;;;6.93;1.52;;;17.80;99.90;;;;;;7378268;19;20014;-82
2022/09/16 08:46:51;;;;;;;10.93;1.58;;;17.70;99.90;;;;;;7385726;19;20052;-82
2022/09/16 08:49:44;;;;;;;10.93;2.35;;;17.90;99.90;;;;;;7371080;19;20026;-83
2022/09/16 08:52:32;;;;;;;9.63;2.10;;;17.90;99.90;;;;;;7384262;19;20086;-82
2022/09/16 08:55:00;;;;;;;8.82;1.92;;;18.00;99.90;;;;;;7394687;19;20061;-82
2022/09/16 08:57:30;;;;;;;8.45;1.60;;;18.20;99.90;;;;;;7398416;19;20338;-82
2022/09/16 09:00:01;;;;;;;5.95;1.50;;;18.40;99.90;;;;;;7395283;19;20022;-81
2022/09/16 09:02:53;;;;;;;10.43;2.10;;;18.50;99.90;;;;;;7398220;19;20015;-82
2022/09/16 09:05:39;;;;;;;8.25;1.52;;;18.50;99.90;;;;;;7398207;19;20022;-81
2022/09/16 09:08:29;;;;;;;13.18;1.98;;;18.30;99.90;;;;;;7398541;19;20011;-82
2022/09/16 09:11:01;;;;;;;7.40;1.70;;;18.30;99.90;;;;;;7391404;19;20033;-82
2022/09/16 09:13:30;;;;;;;;;;;18.60;99.90;;;;;;7400819;19;20375;-82
2022/09/16 09:16:23;;;;;;;9.18;1.55;;;18.50;99.90;;;;;;7395672;19;19918;-81
2022/09/16 09:19:21;;;;;;;9.45;1.50;;;18.70;99.90;;;;;;7395066;19;20026;-81
2022/09/16 09:22:08;;;;;;;9.10;1.98;;;18.30;99.90;;;;;;7389769;19;20022;-81
2022/09/16 09:25:02;;;;;;;9.88;1.40;;;18.30;99.90;;;;;;7391612;19;20023;-81
2022/09/16 09:27:52;;;;;;;12.70;2.08;;;17.50;99.90;;;;;;7394432;19;20010;-79
2022/09/16 09:30:27;;;;;;;11.27;1.88;;;17.30;99.90;;;;;;7394038;19;20015;-81
2022/09/16 09:33:02;;;;;;;9.63;1.90;;;17.30;99.90;;;;;;7397492;19;20031;-81
2022/09/16 09:35:46;;;;;;;9.77;2.13;;;17.50;99.90;;;;;;7397226;19;20551;-81
2022/09/16 09:38:26;;;;;;;7.20;1.77;;;17.70;99.90;;;;;;7398704;19;20022;-81
2022/09/16 09:40:57;;;;;;;13.45;2.08;;;17.50;99.90;;;;;;7391733;19;20018;-80
2022/09/16 09:43:51;;;;;;;10.57;1.88;;;17.30;99.90;;;;;;7395622;19;20015;-80
2022/09/16 09:46:39;;;;;;;6.38;1.50;;;17.50;99.90;;;;;;7394345;19;20086;-81
2022/09/16 09:49:25;;;;;;;5.80;1.30;;;17.30;99.90;;;;;;7395491;19;20043;-81
2022/09/16 09:51:59;;;;;;;9.02;1.70;;;17.60;99.90;;;;;;7392920;19;20636;-80
2022/09/16 09:54:25;;;;;;;10.50;2.25;;;17.50;99.90;;;;;;7387387;19;20014;-80
2022/09/16 09:57:04;;;;;;;8.63;1.52;;;17.70;99.90;;;;;;7395873;19;20381;-79
2022/09/16 09:59:47;;;;;;;12.27;1.83;;;17.80;99.90;;;;;;7394237;19;20011;-78
2022/09/16 10:02:21;;;;;;;7.30;1.30;;;17.70;99.90;;;;;;7397400;19;20022;-80
2022/09/16 10:04:47;;;;;;;6.78;1.13;;;17.60;99.90;;;;;;7396525;19;20086;-80
2022/09/16 10:07:16;;;;;;;5.13;0.90;;;17.30;99.90;;;;;;7395210;19;20444;-80
2022/09/16 10:09:55;;;;;;;3.88;0.90;;;17.00;99.40;;;;;;7397417;19;20018;-80
2022/09/16 10:12:34;;;;;;;5.85;1.30;;;16.80;99.90;;;;;;7393869;19;20111;-80
2022/09/16 10:15:01;;;;;;;9.38;1.30;;;17.20;99.90;;;;;;7395280;19;20014;-81
2022/09/16 10:17:30;;;;;;;8.93;1.52;;;17.40;99.90;;;;;;7395094;19;20034;-82
2022/09/16 10:20:04;;;;;;;9.50;1.60;;;17.40;99.90;;;;;;7390948;19;20963;-82
2022/09/16 10:22:32;;;;;;;7.68;1.70;;;17.30;99.90;;;;;;7392957;19;20596;-81
2022/09/16 10:25:05;;;;;;;9.23;2.17;;;17.20;99.90;;;;;;7392363;19;20018;-80
2022/09/16 10:27:34;;;;;;;;;;;17.00;99.90;;;;;;7398282;19;20028;-81
2022/09/16 10:30:14;;;;;;;6.72;1.60;;;17.30;99.90;;;;;;7397435;19;19918;-82
2022/09/16 10:32:54;;;;;;;8.07;1.45;;;17.40;99.90;;;;;;7395423;19;20026;-82
2022/09/16 10:35:25;;;;;;;10.25;1.90;;;17.50;99.90;;;;;;7395534;19;20040;-80
2022/09/16 10:37:52;;;;;;;6.07;1.10;;;17.70;99.90;;;;;;7393443;19;20018;-82
2022/09/16 10:40:18;;;;;;;8.30;1.92;;;18.10;99.90;;;;;;7379896;19;20483;-82
2022/09/16 10:42:48;;;;;;;8.85;1.50;;;18.60;99.90;;;;;;7397944;19;20026;-82
2022/09/16 10:45:27;;;;;;;8.68;1.77;;;18.70;99.90;;;;;;7388246;19;20015;-82
2022/09/16 10:48:00;;;;;;;8.10;1.50;;;18.60;99.90;;;;;;7392405;19;20022;-80
2022/09/16 10:50:26;;;;;;;11.35;1.90;;;18.00;99.90;;;;;;7397824;19;20502;-80
2022/09/16 10:52:53;;;;;;;7.97;1.65;;;17.80;99.90;;;;;;7393516;19;20018;-81
2022/09/16 10:55:26;;;;;;;9.63;1.52;;;17.90;99.90;;;;;;7387246;19;20006;-81
2022/09/16 10:57:53;;;;;;;8.73;1.60;;;17.90;99.90;;;;;;7399768;19;20069;-81
2022/09/16 11:00:30;;;;;;;6.28;1.25;;;18.00;99.90;;;;;;7393182;19;20029;-81
2022/09/16 11:03:28;;;;;;;7.88;1.80;;;18.10;99.90;;;;;;7396445;19;20027;-81
2022/09/16 11:06:08;;;;;;;7.45;1.70;;;18.30;99.90;;;;;;7397351;19;20018;-80
2022/09/16 11:08:55;;;;;;;7.47;1.45;;;18.50;99.90;;;;;;7394078;19;20010;-80
2022/09/16 11:11:49;;;;;;;11.18;1.40;;;18.60;99.80;;;;;;7388722;19;20022;-81
2022/09/16 11:14:45;;;;;;;8.45;1.58;;;18.70;99.90;;;;;;7394382;19;20506;-81
2022/09/16 11:17:16;;;;;;;11.98;1.55;;;18.60;99.10;;;;;;7393571;19;20012;-81
2022/09/16 11:20:08;;;;;;;6.70;1.40;;;18.40;99.30;;;;;;7392059;19;20086;-81
2022/09/16 11:22:48;;;;;;;8.23;1.40;;;17.90;99.90;;;;;;7391761;19;20006;-81
2022/09/16 11:25:26;;;;;;;9.40;1.50;;;17.90;99.90;;;;;;7393714;19;20044;-81
2022/09/16 11:28:01;;;;;;;12.77;1.73;;;17.90;99.90;;;;;;7393426;19;20491;-82
2022/09/16 11:30:29;;;;;;;9.23;1.65;;;18.30;99.90;;;;;;7395313;19;20021;-81
2022/09/16 11:33:18;;;;;;;9.55;1.90;;;18.30;99.70;;;;;;7391854;19;20007;-81
2022/09/16 11:36:02;;;;;;;6.60;1.48;;;18.20;98.90;;;;;;7390018;19;20384;-81
2022/09/16 11:38:37;;;;;;;8.77;1.65;;;18.20;99.80;;;;;;7395262;19;20019;-81
2022/09/16 11:41:17;;;;;;;7.60;1.98;;;18.20;99.90;;;;;;7390905;19;20014;-86
2022/09/16 11:44:07;;;;;;;10.40;1.40;;;18.00;99.90;;;;;;7393801;19;20015;-82
2022/09/16 11:46:36;;;;;;;8.35;1.40;;;18.40;99.90;;;;;;7394720;19;20018;-81
2022/09/16 11:49:39;;;;;;;6.88;1.52;;;18.80;99.90;;;;;;7391185;19;20021;-81
2022/09/16 11:52:17;;;;;;;4.13;1.20;;;19.00;99.90;;;;;;7393036;19;20018;-80
2022/09/16 11:54:54;;;;;;;10.07;1.95;;;19.20;99.90;;;;;;7390869;19;20026;-80
2022/09/16 11:57:28;;;;;;;7.30;1.48;;;19.50;99.90;;;;;;7389217;19;20019;-81
2022/09/16 12:00:09;;;;;;;9.60;1.50;;;19.40;99.90;;;;;;7392373;19;20021;-78
2022/09/16 12:03:04;;;;;;;8.20;1.52;;;19.20;99.10;;;;;;7390686;19;20594;-78
2022/09/16 12:05:38;;;;;;;16.88;2.80;;;19.10;99.40;;;;;;7391494;19;20014;-79
2022/09/16 12:08:10;;;;;;;12.07;1.85;;;19.10;99.90;;;;;;7391682;19;20325;-80
2022/09/16 12:10:48;;;;;;;11.65;2.53;;;18.70;99.90;;;;;;7390770;19;20010;-80
2022/09/16 12:13:20;;;;;;;18.13;2.60;;;18.30;99.70;;;;;;7392344;19;20401;-80
2022/09/16 12:15:51;;;;;;;17.20;2.97;;;17.90;99.40;;;;;;7391270;19;20011;-79
2022/09/16 12:18:19;;;;;;;15.18;2.42;;;17.70;99.70;;;;;;7391172;19;20014;-80
2022/09/16 12:20:51;;;;;;;10.40;2.10;;;17.60;99.90;;;;;;7389111;19;20024;-80
2022/09/16 12:23:21;;;;;;;11.73;2.05;;;17.60;99.90;;;;;;7390042;19;20006;-80
2022/09/16 12:26:09;;;;;;;9.32;2.20;;;17.80;99.90;;;;;;7390154;19;20011;-78
2022/09/16 12:28:44;;;;;;;14.75;3.15;;;18.00;99.80;;;;;;7391303;19;20162;-79
2022/09/16 12:31:13;;;;;;;14.90;2.55;;;18.00;99.90;;;;;;7391511;19;20018;-79
2022/09/16 12:33:48;;;;;;;16.02;2.88;;;17.90;99.90;;;;;;7391342;19;20014;-79
2022/09/16 12:36:21;;;;;;;13.18;2.50;;;17.60;99.90;;;;;;7391265;19;20014;-79
2022/09/16 12:38:47;;;;;;;10.70;2.28;;;17.80;99.90;;;;;;7389837;19;20042;-79
2022/09/16 12:41:34;;;;;;;16.52;2.80;;;18.00;99.90;;;;;;7388113;19;20021;-79
2022/09/16 12:44:22;;;;;;;14.13;2.35;;;17.80;99.90;;;;;;7391468;19;20010;-80
2022/09/16 12:47:12;;;;;;;9.70;2.33;;;17.90;99.90;;;;;;7389726;19;20023;-79
2022/09/16 12:50:25;;;;;;;12.65;2.47;;;18.10;99.90;;;;;;7389199;19;20082;-80
2022/09/16 12:53:18;;;;;;;16.95;2.78;;;18.00;99.90;;;;;;7388609;19;20038;-79
2022/09/16 12:56:18;;;;;;;15.63;2.67;;;18.00;99.90;;;;;;7396232;19;20095;-80
2022/09/16 12:58:58;;;;;;;17.70;2.78;;;17.80;99.80;;;;;;7398275;19;20014;-78
2022/09/16 13:01:30;;;;;;;19.83;3.15;;;17.50;99.90;;;;;;7394564;19;20010;-79
2022/09/16 13:04:02;;;;;;;10.10;1.98;;;17.50;99.90;;;;;;7396565;19;20017;-81
2022/09/16 13:06:34;;;;;;;12.80;2.10;;;17.40;99.90;;;;;;7396384;19;20419;-81
2022/09/16 13:09:24;;;;;;;9.80;1.67;;;17.20;99.90;;;;;;7396504;19;20010;-82
2022/09/16 13:11:58;;;;;;;9.77;1.70;;;16.90;99.90;;;;;;7397865;19;20010;-81
2022/09/16 13:14:31;;;;;;;7.45;1.55;;;16.60;99.90;;;;;;7396198;19;20015;-81
2022/09/16 13:16:58;;;;;;;7.30;1.25;;;16.60;99.90;;;;;;7394901;19;20463;-81